메인 페이지
METAR-TAF:

METAR-TAF

공항 :

Tyndall Air Force Base

패너마시티, 플로리다, 미국

위도: 30-04N, 경도: 085-35W, 고도: 5m

현재 날씨관측

예보는 1 시간 4분 전, 18:56시(UTC)에 발표되었습니다.
북북동7kt
온도 21°C
습도 60%
기압 1021 hPa
시정: 16.1km
맑음

METAR: KPAM 231856Z AUTO 02007KT 10SM CLR 21/13 A3014 RMK AO2 SLP209 T02080127

시각: 14:00 (20:00 UTC)

예보

예보는 8 시간 0분 전, 12:00시(UTC)에 발표되었습니다.
예보 대상 시간: 23일 12시부터 24일 18시까지 (UTC)
북북서9kt
시정: 2320m
맑음
전환 중
24일 00시부터 24일 01시까지 (UTC)
북동6kt
시정 10km 이상
맑음

TAF: KPAM 231200Z 2312/2418 36009KT 9999 SKC QNH3008INS WND 34009KT AFT 2320 BECMG 2400/2401 05006KT 9999 SKC QNH3015INS TX27/2320Z TN15/2411Z

4,000개 이상의 공항 관측 자료 및 예보 (METAR 및 TAF 보고).

지도상에서 검색 가능한 기상관측소가 노란 점과 빨간 점으로 표시되어 있습니다.

기상관측소 명을 보려면 표시 위로 마우스를 이동하세요.

날씨 관측과 예보를 보려면 클릭하세요.

지도 변경 : 확대하려면 엑스 표시가 있는 녹색 버튼, 축소하려면 빼기 표시가 있는 녹색 버튼, 다음 페이지의 지도를 보려면 녹색 화살표를 클릭하세요.


METAR-TAF: